createdAt,value
2018-11-23T00:01:01.987Z,1.6
2018-11-23T00:06:29.229Z,1.6
2018-11-23T00:11:57.518Z,1.6
2018-11-23T00:17:25.716Z,1.7
2018-11-23T00:22:58.912Z,1.7
2018-11-23T00:28:21.100Z,1.7
2018-11-23T00:33:49.796Z,1.7
2018-11-23T00:39:16.521Z,1.6
2018-11-23T00:44:49.060Z,1.6
2018-11-23T00:50:11.218Z,1.6
2018-11-23T00:55:38.168Z,1.6
2018-11-23T01:01:05.425Z,1.6
2018-11-23T01:06:32.617Z,1.6
2018-11-23T01:11:59.747Z,1.6
2018-11-23T01:17:28.027Z,1.7
2018-11-23T01:22:56.478Z,1.7
2018-11-23T01:28:28.485Z,1.8
2018-11-23T01:33:55.707Z,1.8
2018-11-23T01:39:17.938Z,1.8
2018-11-23T01:44:51.198Z,1.9
2018-11-23T01:50:19.401Z,1.8
2018-11-23T01:55:46.626Z,1.8
2018-11-23T02:01:08.868Z,1.8
2018-11-23T04:56:04.674Z,2
2018-11-23T05:01:26.868Z,2
2018-11-23T05:06:59.216Z,2
2018-11-23T05:12:22.675Z,2
2018-11-23T05:17:49.885Z,2
2018-11-23T05:23:16.916Z,2
2018-11-23T05:28:49.158Z,1.9
2018-11-23T05:34:17.459Z,1.9
2018-11-23T05:39:45.657Z,1.9
2018-11-23T05:45:09.209Z,2
2018-11-23T05:50:37.186Z,2
2018-11-23T05:56:04.684Z,2
2018-11-23T06:01:32.627Z,2
2018-11-23T06:06:59.891Z,2
2018-11-23T06:12:27.183Z,2
2018-11-23T06:17:55.704Z,1.9
2018-11-23T06:23:23.639Z,2
2018-11-23T06:28:50.893Z,2
2018-11-23T06:34:23.159Z,2
2018-11-23T06:39:50.676Z,2
2018-11-23T06:45:13.874Z,2
2018-11-23T06:50:40.928Z,2
2018-11-23T06:56:09.131Z,2
2018-11-23T07:01:37.351Z,2
2018-11-23T07:07:04.647Z,2
2018-11-23T07:12:36.872Z,1.9
2018-11-23T07:18:00.329Z,1.9
2018-11-23T07:23:27.467Z,1.9
2018-11-23T07:28:54.621Z,2
2018-11-23T07:34:22.873Z,2
2018-11-23T07:39:49.518Z,2
2018-11-23T07:45:17.438Z,2
2018-11-23T07:50:44.937Z,2
2018-11-23T07:56:13.169Z,2
2018-11-23T08:01:40.582Z,2
2018-11-23T08:07:07.400Z,2
2018-11-23T08:12:35.665Z,2
2018-11-23T08:18:03.934Z,2
2018-11-23T08:23:31.213Z,2.1
2018-11-23T08:28:58.743Z,2.1
2018-11-23T08:34:25.730Z,2.1
2018-11-23T08:39:53.110Z,2.1
2018-11-23T08:45:25.362Z,2.1
2018-11-23T08:50:52.556Z,2.1
2018-11-23T08:56:14.787Z,2.1
2018-11-23T09:01:43.066Z,2.1
2018-11-23T09:07:11.594Z,2.1
2018-11-23T09:12:39.569Z,2.1
2018-11-23T09:18:12.128Z,2.2
2018-11-23T09:23:34.133Z,2.1
2018-11-23T09:29:02.527Z,2.1
2018-11-23T09:34:32.337Z,2.1
2018-11-23T09:40:02.925Z,2.1
2018-11-23T09:45:31.131Z,2.1
2018-11-23T09:50:58.373Z,2.2
2018-11-23T09:56:21.918Z,2.2
2018-11-23T10:01:48.939Z,2.2
2018-11-23T10:07:22.495Z,2.3
2018-11-23T10:12:44.476Z,2.3
2018-11-23T10:18:12.838Z,2.3
2018-11-23T10:23:40.291Z,2.3
2018-11-23T10:29:07.365Z,2.4
2018-11-23T10:34:34.841Z,2.4
2018-11-23T10:40:06.923Z,2.4
2018-11-23T10:45:29.157Z,2.4
2018-11-23T10:50:57.461Z,2.4
2018-11-23T10:56:29.742Z,2.3
2018-11-23T11:01:52.987Z,2.3
2018-11-23T11:07:25.634Z,2.3
2018-11-23T11:12:48.811Z,2.4
2018-11-23T11:18:15.893Z,2.4
2018-11-23T11:23:43.154Z,2.4
2018-11-23T11:29:11.189Z,2.4
2018-11-23T11:34:37.792Z,2.4
2018-11-23T11:40:05.337Z,2.4
2018-11-23T11:45:33.420Z,2.4
2018-11-23T11:51:01.653Z,2.4
2018-11-23T11:56:35.282Z,2.4
2018-11-23T12:02:04.366Z,2.4
2018-11-23T12:07:26.917Z,2.4
2018-11-23T12:12:54.873Z,2.4
2018-11-23T12:18:23.264Z,2.4
2018-11-23T12:23:50.467Z,2.4
2018-11-23T12:29:17.736Z,2.4
2018-11-23T12:40:13.633Z,2.4
2018-11-23T12:45:41.621Z,2.4
2018-11-23T12:51:14.919Z,2.4
2018-11-23T12:56:42.519Z,2.5
2018-11-23T13:02:10.783Z,2.5
2018-11-23T13:07:38.858Z,2.5
2018-11-23T13:13:01.118Z,2.6
2018-11-23T13:18:33.463Z,2.6
2018-11-23T13:24:01.711Z,2.6
2018-11-23T13:29:29.006Z,2.5
2018-11-23T13:34:51.440Z,2.5
2018-11-23T13:40:18.880Z,2.5
2018-11-23T13:45:51.936Z,2.5
2018-11-23T13:51:15.241Z,2.5
2018-11-23T13:56:42.541Z,2.5
2018-11-23T14:02:10.826Z,2.5
2018-11-23T14:07:38.396Z,2.5
2018-11-23T14:13:11.252Z,2.5
2018-11-23T14:18:39.003Z,2.5
2018-11-23T14:24:01.022Z,2.5
2018-11-23T14:29:33.633Z,2.5
2018-11-23T14:35:00.876Z,2.5
2018-11-23T14:40:22.879Z,2.5
2018-11-23T14:45:50.286Z,2.5
2018-11-23T14:51:18.479Z,2.5
2018-11-23T14:56:45.813Z,2.6
2018-11-23T15:02:14.093Z,2.6
2018-11-23T15:07:42.726Z,2.5
2018-11-23T15:13:10.705Z,2.5
2018-11-23T15:18:39.379Z,2.5
2018-11-23T15:24:12.299Z,2.5
2018-11-23T15:29:35.640Z,2.5
2018-11-23T15:35:03.895Z,2.5
2018-11-23T15:40:31.193Z,2.5
2018-11-23T15:46:03.561Z,2.5
2018-11-23T15:51:27.022Z,2.5
2018-11-23T15:56:55.336Z,2.5
2018-11-23T16:02:27.696Z,2.5
2018-11-23T16:07:50.638Z,2.5
2018-11-23T16:13:18.994Z,2.5
2018-11-23T16:18:46.307Z,2.5
2018-11-23T16:24:18.549Z,2.5
2018-11-23T16:29:41.103Z,2.5
2018-11-23T16:35:08.165Z,2.5
2018-11-23T16:40:35.428Z,2.6
2018-11-23T16:46:03.001Z,2.5
2018-11-23T16:51:31.259Z,2.5
2018-11-23T16:56:59.261Z,2.5
2018-11-23T17:02:27.590Z,2.5
2018-11-23T17:07:54.873Z,2.5
2018-11-23T17:13:23.223Z,2.6
2018-11-23T17:18:51.578Z,2.6
2018-11-23T17:24:19.764Z,2.6
2018-11-23T17:29:48.120Z,2.6
2018-11-23T17:35:16.399Z,2.6
2018-11-23T17:40:50.355Z,2.6
2018-11-23T17:46:13.314Z,2.6
2018-11-23T17:51:40.441Z,2.6
2018-11-23T17:57:12.950Z,2.6
2018-11-23T18:02:34.945Z,2.6
2018-11-23T18:08:03.328Z,2.6
2018-11-23T18:13:31.544Z,2.6
2018-11-23T18:18:59.130Z,2.6
2018-11-23T18:24:31.201Z,2.6
2018-11-23T18:29:54.512Z,2.6
2018-11-23T18:35:22.797Z,2.6
2018-11-23T18:40:51.120Z,2.6
2018-11-23T18:46:24.414Z,2.6
2018-11-23T18:51:47.970Z,2.6
2018-11-23T18:57:15.272Z,2.6
2018-11-23T19:02:43.437Z,2.6
2018-11-23T19:08:11.694Z,2.6
2018-11-23T19:13:39.298Z,2.6
2018-11-23T19:19:06.253Z,2.6
2018-11-23T19:24:33.553Z,2.7
2018-11-23T19:30:01.132Z,2.7
2018-11-23T19:35:28.176Z,2.7
2018-11-23T19:41:01.447Z,2.7
2018-11-23T19:46:24.747Z,2.7
2018-11-23T19:51:53.053Z,2.7
2018-11-23T19:57:20.340Z,2.7
2018-11-23T20:02:48.906Z,2.7
2018-11-23T20:08:16.045Z,2.7
2018-11-23T20:13:43.229Z,2.8
2018-11-23T20:19:10.828Z,2.7
2018-11-23T20:24:38.875Z,2.7
2018-11-23T20:30:12.468Z,2.7
2018-11-23T20:35:34.732Z,2.7
2018-11-23T20:41:03.920Z,2.7
2018-11-23T20:46:35.437Z,2.7
2018-11-23T20:51:57.701Z,2.7
2018-11-23T20:57:24.987Z,2.8
2018-11-23T21:02:52.112Z,2.8
2018-11-23T21:08:21.428Z,2.8
2018-11-23T21:13:47.749Z,2.8
2018-11-23T21:19:20.025Z,2.8
2018-11-23T21:24:47.363Z,2.8
2018-11-23T21:30:10.546Z,2.8
2018-11-23T21:35:38.822Z,2.7
2018-11-23T21:41:12.149Z,2.7
2018-11-23T21:46:40.508Z,2.7
2018-11-23T21:52:08.806Z,2.7
2018-11-23T21:57:37.135Z,2.7
2018-11-23T22:03:05.464Z,2.7
2018-11-23T22:08:28.856Z,2.7
2018-11-23T22:13:56.094Z,2.7
2018-11-23T22:19:23.371Z,2.7
2018-11-23T22:24:51.791Z,2.7
2018-11-23T22:30:19.018Z,2.7
2018-11-23T22:35:48.191Z,2.7
2018-11-23T22:41:19.877Z,2.7
2018-11-23T22:46:42.904Z,2.7
2018-11-23T22:52:10.234Z,2.7
2018-11-23T22:57:43.554Z,2.7
2018-11-23T23:03:06.839Z,2.7
2018-11-23T23:08:34.090Z,2.7
2018-11-23T23:14:01.681Z,2.6
2018-11-23T23:19:33.787Z,2.6
2018-11-23T23:24:57.258Z,2.6
2018-11-23T23:30:24.293Z,2.6
2018-11-23T23:35:56.584Z,2.6
2018-11-23T23:41:18.860Z,2.6
2018-11-23T23:46:47.477Z,2.6
2018-11-23T23:52:15.514Z,2.6
2018-11-23T23:57:42.826Z,2.6
